Spearsville, Indiana
Current Conditions -  °F | °C
As of 12:55 PM on Monday 24 Nov 2014 (Local Time) from K1II Reporting Station
Overcast Overcast  
Wind Chill: 32°   Ceiling: 1900
Heat Index: 41°   Visibility: 10mi
Dew Point: 34°   Wind: 20mph
Humidity: 76%   Direction: 240°WSW
Pressure: 29.59"   Gusts: 30mph
Location:  39.3709°N, 86.1938°W
Report Text: K1II 241755Z AUTO 24017G26KT 10SM OVC019 05/01 A2959 RMK AO2
Loading
Personal Weather Stations






























Interactive Weather Map New forecast layout! Learn more

10-Day Weather Forecast

Advertisements
Track Severe Weather on mobile